Paducah, KY

7:09 AM CST on February 12, 2016 (GMT -0600)
Ricks Place Paducah, KY | | Change Station
CLOSE
Current Station
Personal Weather Station
Location: Paducah, KY
Elevation: 351 ft
Nearby Weather Stations
Active Advisory: Flood Warning

Elev 351 ft 37.07 °N, 88.62 °W | Updated 3 minutes ago

Overcast
Overcast
26.6 °F
Feels Like 22 °F
N
3.7
Wind Variable Wind from NNE

Today
High -- | Low -- °F
--% Chance of Precip.
Yesterday
High -- | Low -- °F
Precip. -- in
Pressure 30.22 in
Visibility 10.0 miles
Clouds Scattered Clouds 700 ft
Overcast 7000 ft
Windchill 22 °F
Dew Point 22 °F
Humidity 84%
Rainfall 0.00 in
Snow Depth Not available.
6:47 AM 5:31 PM
Waxing Crescent, 20% visible
METAR KPAH 121253Z 03005KT 10SM SCT007 OVC070 M02/M04 A3021 RMK AO2 SLP234 T10171044
Pressure 30.22 in
Visibility 10.0 miles
Clouds Scattered Clouds 700 ft
Overcast 7000 ft
Windchill 22 °F
Dew Point 22 °F
Humidity 84%
Rainfall 0.00 in
Snow Depth Not available.
6:47 AM 5:31 PM
Waxing Crescent, 20% visible
METAR KPAH 121253Z 03005KT 10SM SCT007 OVC070 M02/M04 A3021 RMK AO2 SLP234 T10171044

10-Day Weather Forecast

Almanac

Astronomy

Feb. 12, 2016 Rise Set
Actual Time
Civil Twilight
Nautical Twilight
Astronomical Twilight
Moon
Length of Visible Light
Length of Day
Tomorrow will be .
, % of the Moon is Illuminated

Today's Extremes

State Highs State Lows

Community

WunderPhotos

Upload Photos

1,892,305 photos uploaded!

WunderBlog® & News

Nearby

Air Quality

  Air Quality AQ Index Pollutant
Not available.

Snow Depth

Station Depth Elevation

Earthquake Activity

City Distance Mag. Time & Date
Minimum magnitude displayed is 2.5.

Coastal Water Temperatures

Place Temperature

Stations

Nearby Weather Stations

Station Location Temp. Windchill Dew Point Humidity Wind Precip. Elev Updated Type
                   

Watches & Warnings

Flood Warning
Issued: 8:22 PM CST Feb. 11, 2016 – National Weather Service

The Flood Warning continues for
the Ohio River at Grand Chain dam
* until Saturday morning.
* At 4:00 PM Thursday the stage was 42.3 feet.
* Flood stage is 42.0 feet.
* Minor flooding is occurring and minor flooding is forecast.
* Forecast... the river will continue to fall to below flood stage by
early Saturday morning.
* Impact... at 42.0 feet... this will cause minor flooding of mainly low
lying areas.


Lat... Lon 3727 8908 3717 8916 3709 8907 3714 8888
      3727 8884